createdAt,value
2023-04-19T00:01:25.299Z,95654.22
2023-04-19T00:03:52.152Z,95655.50
2023-04-19T00:06:18.999Z,95648.94
2023-04-19T00:08:45.587Z,95649.41
2023-04-19T00:11:12.207Z,95646.44
2023-04-19T00:13:38.732Z,95643.66
2023-04-19T00:16:05.891Z,95643.81
2023-04-19T00:18:32.415Z,95636.47
2023-04-19T00:20:58.968Z,95639.06
2023-04-19T00:23:25.927Z,95646.16
2023-04-19T00:25:52.490Z,95640.41
2023-04-19T00:28:19.008Z,95630.53
2023-04-19T00:30:45.618Z,95633.28
2023-04-19T00:33:15.100Z,95635.00
2023-04-19T00:35:42.243Z,95632.50
2023-04-19T00:38:08.875Z,95634.16
2023-04-19T00:40:37.366Z,95633.16
2023-04-19T00:43:04.773Z,95635.09
2023-04-19T00:45:33.564Z,95623.94
2023-04-19T00:48:01.415Z,95630.53
2023-04-19T00:50:28.693Z,95628.72
2023-04-19T00:52:57.512Z,95621.16
2023-04-19T00:55:25.202Z,95625.41
2023-04-19T00:57:52.105Z,95627.91
2023-04-19T01:00:20.155Z,95627.31
2023-04-19T01:02:48.004Z,95618.97
2023-04-19T01:05:14.945Z,95617.16
2023-04-19T01:07:43.159Z,95618.53
2023-04-19T01:10:10.311Z,95617.84
2023-04-19T01:12:36.974Z,95615.06
2023-04-19T01:15:04.001Z,95622.00
2023-04-19T01:17:33.033Z,95609.81
2023-04-19T01:20:04.104Z,95607.47
2023-04-19T01:22:31.888Z,95609.28
2023-04-19T01:24:58.867Z,95597.91
2023-04-19T01:27:25.597Z,95595.09
2023-04-19T01:29:52.249Z,95600.03
2023-04-19T01:32:18.970Z,95590.47
2023-04-19T01:34:45.574Z,95589.31
2023-04-19T01:37:12.148Z,95587.69
2023-04-19T01:39:40.381Z,95587.56
2023-04-19T01:42:07.237Z,95586.69
2023-04-19T01:44:33.840Z,95584.84
2023-04-19T01:47:00.569Z,95585.03
2023-04-19T01:49:27.193Z,95588.03
2023-04-19T01:51:53.831Z,95580.09
2023-04-19T01:54:20.536Z,95584.56
2023-04-19T01:56:49.560Z,95576.50
2023-04-19T01:59:16.330Z,95578.34
2023-04-19T02:01:42.933Z,95575.88
2023-04-19T02:04:10.520Z,95569.97
2023-04-19T02:06:37.155Z,95573.88
2023-04-19T02:09:04.302Z,95571.63
2023-04-19T02:11:30.951Z,95577.00
2023-04-19T02:13:57.493Z,95577.84
2023-04-19T02:16:24.143Z,95570.31
2023-04-19T02:18:50.751Z,95567.69
2023-04-19T02:21:18.177Z,95562.59
2023-04-19T02:23:44.771Z,95565.41
2023-04-19T02:26:11.524Z,95563.94
2023-04-19T02:28:39.100Z,95572.03
2023-04-19T02:31:06.410Z,95562.44
2023-04-19T02:33:35.253Z,95561.34
2023-04-19T02:36:01.890Z,95552.94
2023-04-19T02:38:28.486Z,95541.91
2023-04-19T02:40:55.050Z,95553.59
2023-04-19T02:43:21.642Z,95549.47
2023-04-19T02:45:48.311Z,95543.09
2023-04-19T02:48:14.884Z,95545.06
2023-04-19T02:50:41.394Z,95545.03
2023-04-19T02:53:08.136Z,95544.41
2023-04-19T02:55:34.729Z,95541.09
2023-04-19T02:58:06.671Z,95539.63
2023-04-19T03:00:38.110Z,95541.75
2023-04-19T03:03:10.019Z,95536.81
2023-04-19T03:05:36.860Z,95536.81
2023-04-19T03:08:03.543Z,95531.03
2023-04-19T03:10:30.353Z,95530.22
2023-04-19T03:12:56.905Z,95535.81
2023-04-19T03:15:23.646Z,95535.50
2023-04-19T03:17:50.391Z,95529.91
2023-04-19T03:20:20.744Z,95527.44
2023-04-19T03:22:47.529Z,95521.03
2023-04-19T03:25:14.393Z,95516.59
2023-04-19T03:27:45.584Z,95527.91
2023-04-19T03:30:14.302Z,95521.03
2023-04-19T03:32:42.950Z,95517.25
2023-04-19T03:35:11.518Z,95514.13
2023-04-19T03:37:38.516Z,95510.53
2023-04-19T03:40:05.962Z,95514.97
2023-04-19T03:42:34.129Z,95514.00
2023-04-19T03:45:12.006Z,95504.31
2023-04-19T03:47:43.797Z,95508.41
2023-04-19T03:50:10.685Z,95505.09
2023-04-19T03:52:38.727Z,95504.63
2023-04-19T03:55:06.054Z,95497.19
2023-04-19T03:57:39.489Z,95501.97
2023-04-19T04:00:16.858Z,95509.88
2023-04-19T04:02:47.551Z,95514.66
2023-04-19T04:05:15.040Z,95508.56
2023-04-19T04:07:42.026Z,95516.78
2023-04-19T04:10:09.051Z,95503.94
2023-04-19T04:12:41.050Z,95515.28
2023-04-19T04:15:10.024Z,95509.06
2023-04-19T04:17:41.270Z,95503.78
2023-04-19T04:20:08.916Z,95511.81
2023-04-19T04:22:39.786Z,95516.44
2023-04-19T04:25:06.971Z,95506.41
2023-04-19T04:27:37.484Z,95511.81
2023-04-19T04:30:06.290Z,95511.16
2023-04-19T04:32:35.810Z,95510.00
2023-04-19T04:35:04.024Z,95512.97
2023-04-19T04:37:40.205Z,95513.50
2023-04-19T04:40:08.931Z,95516.63
2023-04-19T04:42:35.648Z,95514.47
2023-04-19T04:45:02.327Z,95512.19
2023-04-19T04:47:34.728Z,95510.88
2023-04-19T04:50:05.948Z,95506.75
2023-04-19T04:52:32.562Z,95510.22
2023-04-19T04:55:11.012Z,95514.16
2023-04-19T04:57:42.217Z,95510.88
2023-04-19T05:00:14.076Z,95514.63
2023-04-19T05:02:50.578Z,95519.91
2023-04-19T05:05:17.302Z,95511.50
2023-04-19T05:07:43.984Z,95513.81
2023-04-19T05:10:11.073Z,95512.69
2023-04-19T05:12:44.055Z,95506.63
2023-04-19T05:15:12.004Z,95509.53
2023-04-19T05:17:43.074Z,95508.09
2023-04-19T05:20:10.109Z,95497.06
2023-04-19T05:22:37.442Z,95503.28
2023-04-19T05:25:06.324Z,95505.28
2023-04-19T05:27:33.017Z,95500.81
2023-04-19T05:29:59.883Z,95499.03
2023-04-19T05:32:27.481Z,95504.94
2023-04-19T05:34:57.476Z,95500.97
2023-04-19T05:37:27.052Z,95502.97
2023-04-19T05:39:53.614Z,95501.34
2023-04-19T05:42:20.574Z,95492.75
2023-04-19T05:44:47.099Z,95496.88
2023-04-19T05:47:13.918Z,95500.66
2023-04-19T05:49:55.064Z,95499.03
2023-04-19T05:52:41.888Z,95498.53
2023-04-19T05:55:08.538Z,95500.03
2023-04-19T05:57:40.298Z,95501.78
2023-04-19T06:00:09.512Z,95498.50
2023-04-19T06:02:57.935Z,95497.34
2023-04-19T06:05:24.777Z,95498.34
2023-04-19T06:07:55.547Z,95503.13
2023-04-19T06:10:36.771Z,95490.94
2023-04-19T06:13:16.164Z,95495.38
2023-04-19T06:15:43.228Z,95492.75
2023-04-19T06:18:10.294Z,95495.69
2023-04-19T06:20:46.688Z,95494.75
2023-04-19T06:23:14.685Z,95502.63
2023-04-19T06:25:41.309Z,95486.66
2023-04-19T06:28:07.920Z,95488.97
2023-04-19T06:30:34.436Z,95497.50
2023-04-19T06:33:01.153Z,95501.34
2023-04-19T06:35:27.805Z,95497.69
2023-04-19T06:37:54.363Z,95488.13
2023-04-19T06:40:21.033Z,95495.38
2023-04-19T06:42:47.570Z,95494.41
2023-04-19T06:45:15.983Z,95493.75
2023-04-19T06:47:42.576Z,95494.41
2023-04-19T06:50:10.671Z,95488.63
2023-04-19T06:52:38.485Z,95488.78
2023-04-19T06:55:07.025Z,95493.56
2023-04-19T06:57:33.562Z,95487.78
2023-04-19T07:00:00.197Z,95485.13
2023-04-19T07:02:26.941Z,95475.41
2023-04-19T07:04:53.637Z,95489.94
2023-04-19T07:07:20.173Z,95484.00
2023-04-19T07:09:46.756Z,95485.31
2023-04-19T07:12:13.271Z,95483.66
2023-04-19T07:14:39.789Z,95478.25
2023-04-19T07:17:06.310Z,95477.88
2023-04-19T07:19:33.057Z,95476.38
2023-04-19T07:21:59.835Z,95474.88
2023-04-19T07:24:27.887Z,95477.06
2023-04-19T07:26:54.505Z,95477.34
2023-04-19T07:29:21.137Z,95474.72
2023-04-19T07:31:47.865Z,95478.16
2023-04-19T07:34:14.867Z,95471.72
2023-04-19T07:36:41.517Z,95475.19
2023-04-19T07:39:08.342Z,95479.69
2023-04-19T07:41:36.112Z,95472.25
2023-04-19T07:44:03.126Z,95470.09
2023-04-19T07:46:30.104Z,95464.06
2023-04-19T07:48:56.707Z,95464.47
2023-04-19T07:51:24.536Z,95460.53
2023-04-19T07:53:51.173Z,95462.59
2023-04-19T07:56:19.611Z,95461.78
2023-04-19T07:58:50.910Z,95461.53
2023-04-19T08:01:23.579Z,95458.56
2023-04-19T08:03:50.325Z,95454.13
2023-04-19T08:06:17.970Z,95452.22
2023-04-19T08:08:44.533Z,95457.03
2023-04-19T08:11:11.090Z,95456.34
2023-04-19T08:13:37.903Z,95456.63
2023-04-19T08:18:35.920Z,95443.56
2023-04-19T08:21:02.552Z,95450.88
2023-04-19T08:23:34.937Z,95450.06
2023-04-19T08:26:08.100Z,95449.31
2023-04-19T08:28:34.646Z,95447.66
2023-04-19T08:31:01.198Z,95447.56
2023-04-19T08:33:28.900Z,95455.59
2023-04-19T08:35:55.446Z,95446.66
2023-04-19T08:38:22.047Z,95449.34
2023-04-19T08:40:52.700Z,95450.06
2023-04-19T08:43:19.905Z,95447.53
2023-04-19T08:45:50.491Z,95443.13
2023-04-19T08:48:18.920Z,95440.66
2023-04-19T08:51:03.536Z,95441.81
2023-04-19T08:53:34.276Z,95437.00
2023-04-19T09:01:04.955Z,95432.53
2023-04-19T09:03:38.552Z,95426.28
2023-04-19T09:06:12.050Z,95426.47
2023-04-19T09:08:39.844Z,95425.56
2023-04-19T09:11:06.691Z,95420.81
2023-04-19T09:13:34.091Z,95425.19
2023-04-19T09:16:00.976Z,95424.25
2023-04-19T09:18:30.401Z,95416.28
2023-04-19T09:20:58.149Z,95420.06
2023-04-19T09:23:27.318Z,95419.16
2023-04-19T09:26:19.468Z,95410.75
2023-04-19T09:28:56.279Z,95410.47
2023-04-19T09:31:39.047Z,95407.25
2023-04-19T09:34:17.846Z,95403.28
2023-04-19T09:36:44.815Z,95404.53
2023-04-19T09:39:12.103Z,95402.03
2023-04-19T09:41:52.957Z,95397.38
2023-04-19T09:45:01.801Z,95391.50
2023-04-19T09:47:24.571Z,95387.16
2023-04-19T09:50:22.860Z,95386.09
2023-04-19T09:52:52.630Z,95380.66
2023-04-19T09:57:49.184Z,95365.84
2023-04-19T10:00:16.069Z,95371.16
2023-04-19T10:02:44.958Z,95372.81
2023-04-19T10:05:20.681Z,95362.84
2023-04-19T10:07:49.704Z,95367.53
2023-04-19T10:10:22.567Z,95360.47
2023-04-19T10:15:25.115Z,95363.00
2023-04-19T10:17:52.782Z,95348.81
2023-04-19T10:20:25.234Z,95348.41
2023-04-19T10:22:51.912Z,95348.38
2023-04-19T10:25:18.671Z,95341.28
2023-04-19T10:27:51.274Z,95340.09
2023-04-19T10:30:26.983Z,95336.16
2023-04-19T10:32:56.548Z,95336.84
2023-04-19T10:35:25.853Z,95330.94
2023-04-19T10:38:13.275Z,95325.28
2023-04-19T10:40:52.399Z,95316.88
2023-04-19T10:43:19.892Z,95320.56
2023-04-19T10:45:47.592Z,95316.84
2023-04-19T10:48:26.401Z,95324.78
2023-04-19T10:51:11.421Z,95314.41
2023-04-19T10:53:51.811Z,95312.44
2023-04-19T10:56:35.536Z,95312.06
2023-04-19T10:59:10.195Z,95296.84
2023-04-19T11:01:47.316Z,95297.91
2023-04-19T11:04:43.859Z,95300.28
2023-04-19T11:07:13.313Z,95304.63
2023-04-19T11:09:45.198Z,95299.47
2023-04-19T11:12:13.976Z,95298.56
2023-04-19T11:14:42.866Z,95303.41
2023-04-19T11:17:19.380Z,95296.88
2023-04-19T11:19:56.829Z,95296.03
2023-04-19T11:22:37.552Z,95291.16
2023-04-19T11:25:08.744Z,95294.16
2023-04-19T11:27:36.096Z,95283.25
2023-04-19T11:30:08.180Z,95281.47
2023-04-19T11:32:35.490Z,95278.06
2023-04-19T11:35:08.136Z,95281.72
2023-04-19T11:37:36.565Z,95282.44
2023-04-19T11:40:07.675Z,95280.19
2023-04-19T11:42:34.707Z,95276.41
2023-04-19T11:45:01.978Z,95266.47
2023-04-19T11:47:28.923Z,95272.22
2023-04-19T11:49:58.706Z,95268.75
2023-04-19T11:52:26.358Z,95268.28
2023-04-19T11:54:53.597Z,95262.28
2023-04-19T11:57:30.634Z,95261.41
2023-04-19T12:00:11.009Z,95260.16
2023-04-19T12:02:46.442Z,95264.91
2023-04-19T12:05:15.489Z,95259.44
2023-04-19T12:08:17.655Z,95265.28
2023-04-19T12:10:57.509Z,95257.34
2023-04-19T12:13:25.633Z,95255.31
2023-04-19T12:15:52.745Z,95262.53
2023-04-19T12:18:19.355Z,95259.47
2023-04-19T12:20:48.292Z,95259.38
2023-04-19T12:23:16.239Z,95258.44
2023-04-19T12:25:46.064Z,95255.59
2023-04-19T12:28:13.673Z,95252.88
2023-04-19T12:30:40.712Z,95258.09
2023-04-19T12:33:08.211Z,95255.00
2023-04-19T12:35:35.982Z,95254.16
2023-04-19T12:38:03.309Z,95253.25
2023-04-19T12:40:30.672Z,95249.03
2023-04-19T12:42:57.336Z,95249.84
2023-04-19T12:45:24.018Z,95247.34
2023-04-19T12:47:50.840Z,95244.44
2023-04-19T12:50:17.436Z,95238.13
2023-04-19T12:52:44.704Z,95240.47
2023-04-19T12:55:11.401Z,95241.00
2023-04-19T12:57:37.920Z,95249.34
2023-04-19T13:00:06.077Z,95250.16
2023-04-19T13:02:34.898Z,95249.69
2023-04-19T13:05:05.001Z,95243.53
2023-04-19T13:07:31.699Z,95244.38
2023-04-19T13:09:58.248Z,95248.75
2023-04-19T13:12:24.840Z,95245.63
2023-04-19T13:14:52.570Z,95243.63
2023-04-19T13:17:20.233Z,95237.94
2023-04-19T13:19:47.470Z,95241.25
2023-04-19T13:22:14.325Z,95236.13
2023-04-19T13:24:40.892Z,95232.50
2023-04-19T13:27:08.893Z,95230.44
2023-04-19T13:29:36.307Z,95229.75
2023-04-19T13:32:03.206Z,95223.72
2023-04-19T13:34:29.765Z,95225.88
2023-04-19T13:36:57.598Z,95223.59
2023-04-19T13:39:24.314Z,95222.38
2023-04-19T13:41:51.240Z,95217.69
2023-04-19T13:44:18.189Z,95215.69
2023-04-19T13:46:45.143Z,95214.00
2023-04-19T13:49:11.802Z,95216.31
2023-04-19T13:51:49.614Z,95223.44
2023-04-19T13:54:18.151Z,95218.63
2023-04-19T13:56:50.533Z,95219.53
2023-04-19T13:59:18.139Z,95219.09
2023-04-19T14:01:44.884Z,95211.69
2023-04-19T14:04:11.555Z,95214.47
2023-04-19T14:06:38.306Z,95209.56
2023-04-19T14:09:04.842Z,95214.16
2023-04-19T14:11:33.005Z,95218.63
2023-04-19T14:13:59.601Z,95209.41
2023-04-19T14:16:26.204Z,95208.50
2023-04-19T14:18:52.923Z,95211.03
2023-04-19T14:21:19.760Z,95221.41
2023-04-19T14:23:46.585Z,95220.78
2023-04-19T14:26:13.217Z,95221.97
2023-04-19T14:28:39.747Z,95226.44
2023-04-19T14:31:06.320Z,95228.53
2023-04-19T14:33:33.304Z,95219.91
2023-04-19T14:36:00.000Z,95222.03
2023-04-19T14:38:26.533Z,95229.13
2023-04-19T14:40:53.464Z,95224.38
2023-04-19T14:43:20.050Z,95229.84
2023-04-19T14:45:49.675Z,95226.25
2023-04-19T14:48:16.389Z,95225.91
2023-04-19T14:50:42.996Z,95228.63
2023-04-19T14:53:09.757Z,95227.28
2023-04-19T14:55:39.296Z,95226.00
2023-04-19T14:58:05.922Z,95235.16
2023-04-19T15:00:33.617Z,95233.88
2023-04-19T15:03:01.426Z,95244.22
2023-04-19T15:05:28.395Z,95252.75
2023-04-19T15:07:55.346Z,95246.34
2023-04-19T15:10:21.886Z,95252.94
2023-04-19T15:12:48.482Z,95249.31
2023-04-19T15:15:15.004Z,95254.91
2023-04-19T15:17:42.815Z,95268.13
2023-04-19T15:20:09.582Z,95263.34
2023-04-19T15:22:36.295Z,95277.03
2023-04-19T15:25:03.561Z,95278.44
2023-04-19T15:27:30.309Z,95280.00
2023-04-19T15:29:56.827Z,95281.63
2023-04-19T15:32:23.439Z,95283.31
2023-04-19T15:34:50.049Z,95279.88
2023-04-19T15:37:16.618Z,95287.69
2023-04-19T15:39:43.947Z,95287.69
2023-04-19T15:42:10.584Z,95288.16
2023-04-19T15:44:37.342Z,95290.97
2023-04-19T15:47:04.025Z,95291.31
2023-04-19T15:49:30.917Z,95295.38
2023-04-19T15:52:03.463Z,95286.38
2023-04-19T15:54:30.939Z,95289.22
2023-04-19T15:56:57.646Z,95284.13
2023-04-19T15:59:24.221Z,95288.66
2023-04-19T16:01:50.867Z,95293.81
2023-04-19T16:04:17.770Z,95286.44
2023-04-19T16:06:44.709Z,95289.91
2023-04-19T16:09:11.397Z,95289.78
2023-04-19T16:11:39.073Z,95284.63
2023-04-19T16:14:07.826Z,95283.00
2023-04-19T16:16:34.911Z,95285.81
2023-04-19T16:19:02.184Z,95298.41
2023-04-19T16:21:30.399Z,95301.09
2023-04-19T16:23:58.092Z,95298.06
2023-04-19T16:26:26.050Z,95301.75
2023-04-19T16:28:52.987Z,95308.63
2023-04-19T16:31:19.535Z,95307.69
2023-04-19T16:33:46.204Z,95303.75
2023-04-19T16:36:12.820Z,95298.97
2023-04-19T16:38:39.342Z,95311.03
2023-04-19T16:41:05.972Z,95314.00
2023-04-19T16:43:32.722Z,95313.34
2023-04-19T16:45:59.368Z,95321.16
2023-04-19T16:48:26.928Z,95323.53
2023-04-19T16:50:53.614Z,95317.78
2023-04-19T16:53:20.324Z,95319.59
2023-04-19T16:55:46.851Z,95320.16
2023-04-19T16:58:14.308Z,95313.13
2023-04-19T17:00:41.071Z,95313.69
2023-04-19T17:03:09.960Z,95309.38
2023-04-19T17:05:36.782Z,95310.84
2023-04-19T17:08:03.389Z,95310.03
2023-04-19T17:10:30.128Z,95310.78
2023-04-19T17:12:57.048Z,95316.22
2023-04-19T17:15:23.782Z,95318.47
2023-04-19T17:17:50.434Z,95308.41
2023-04-19T17:20:17.048Z,95304.38
2023-04-19T17:22:43.667Z,95302.19
2023-04-19T17:25:10.339Z,95293.03
2023-04-19T17:27:36.918Z,95288.03
2023-04-19T17:30:04.204Z,95276.97
2023-04-19T17:32:31.207Z,95282.50
2023-04-19T17:34:57.728Z,95283.03
2023-04-19T17:37:24.308Z,95280.81
2023-04-19T17:39:50.964Z,95276.50
2023-04-19T17:42:17.550Z,95276.34
2023-04-19T17:44:44.145Z,95261.63
2023-04-19T17:47:10.748Z,95262.28
2023-04-19T17:49:37.315Z,95263.16
2023-04-19T17:52:04.022Z,95273.97
2023-04-19T17:54:30.574Z,95267.72
2023-04-19T17:56:59.232Z,95249.66
2023-04-19T17:59:25.755Z,95251.28
2023-04-19T18:01:52.348Z,95254.09
2023-04-19T18:04:20.094Z,95252.97
2023-04-19T18:06:46.918Z,95262.84
2023-04-19T18:09:14.016Z,95259.88
2023-04-19T18:11:40.804Z,95252.53
2023-04-19T18:14:07.336Z,95257.66
2023-04-19T18:16:34.036Z,95254.81
2023-04-19T18:19:00.650Z,95259.75
2023-04-19T18:21:27.452Z,95255.75
2023-04-19T18:23:54.696Z,95256.28
2023-04-19T18:26:24.113Z,95254.94
2023-04-19T18:28:50.727Z,95262.38
2023-04-19T18:31:17.240Z,95263.75
2023-04-19T18:33:43.767Z,95264.88
2023-04-19T18:36:10.989Z,95267.59
2023-04-19T18:38:37.696Z,95269.75
2023-04-19T18:41:04.465Z,95270.66
2023-04-19T18:43:31.553Z,95280.09
2023-04-19T18:45:59.070Z,95294.00
2023-04-19T18:48:28.120Z,95289.25
2023-04-19T18:50:55.173Z,95290.00
2023-04-19T18:53:21.719Z,95291.84
2023-04-19T18:55:48.544Z,95295.81
2023-04-19T18:58:15.389Z,95297.16
2023-04-19T19:00:41.927Z,95308.03
2023-04-19T19:03:15.878Z,95316.72
2023-04-19T19:05:55.548Z,95315.25
2023-04-19T19:08:22.368Z,95313.13
2023-04-19T19:11:14.312Z,95315.59
2023-04-19T19:13:35.914Z,95309.44
2023-04-19T19:16:02.662Z,95307.69
2023-04-19T19:18:29.559Z,95309.44
2023-04-19T19:21:03.116Z,95305.69
2023-04-19T19:23:35.730Z,95308.22
2023-04-19T19:26:03.696Z,95305.38
2023-04-19T19:28:30.299Z,95307.88
2023-04-19T19:30:56.867Z,95309.00
2023-04-19T19:33:24.046Z,95305.56
2023-04-19T19:35:50.697Z,95310.00
2023-04-19T19:38:17.247Z,95310.00
2023-04-19T19:41:20.726Z,95304.72
2023-04-19T19:43:30.259Z,95312.31
2023-04-19T19:45:56.850Z,95308.78
2023-04-19T19:48:23.577Z,95308.47
2023-04-19T19:51:17.348Z,95307.69
2023-04-19T19:53:36.721Z,95314.25
2023-04-19T19:56:13.044Z,95311.63
2023-04-19T19:58:49.705Z,95301.75
2023-04-19T20:01:18.229Z,95294.72
2023-04-19T20:03:45.156Z,95295.72
2023-04-19T20:06:57.207Z,95293.41
2023-04-19T20:08:59.725Z,95290.72
2023-04-19T20:11:26.391Z,95299.66
2023-04-19T20:13:52.965Z,95298.22
2023-04-19T20:16:19.641Z,95295.44
2023-04-19T20:18:48.964Z,95289.84
2023-04-19T20:21:16.944Z,95291.72
2023-04-19T20:23:43.485Z,95287.28
2023-04-19T20:26:09.995Z,95291.28
2023-04-19T20:28:36.569Z,95288.00
2023-04-19T20:31:03.174Z,95292.53
2023-04-19T20:33:29.736Z,95291.69
2023-04-19T20:35:59.630Z,95296.50
2023-04-19T20:38:29.085Z,95295.66
2023-04-19T20:40:56.379Z,95292.69
2023-04-19T20:43:22.983Z,95274.91
2023-04-19T20:45:49.672Z,95280.13
2023-04-19T20:48:17.621Z,95279.16
2023-04-19T20:50:44.251Z,95284.88
2023-04-19T20:53:10.833Z,95283.78
2023-04-19T20:55:38.194Z,95282.22
2023-04-19T20:58:04.926Z,95293.41
2023-04-19T21:00:31.506Z,95285.28
2023-04-19T21:02:58.177Z,95275.94
2023-04-19T21:05:24.803Z,95265.72
2023-04-19T21:07:51.662Z,95265.56
2023-04-19T21:10:18.571Z,95266.88
2023-04-19T21:12:45.162Z,95260.78
2023-04-19T21:15:12.162Z,95261.31
2023-04-19T21:17:39.238Z,95255.53
2023-04-19T21:20:11.988Z,95259.66
2023-04-19T21:22:43.173Z,95249.88
2023-04-19T21:25:10.803Z,95246.91
2023-04-19T21:27:37.712Z,95247.34
2023-04-19T21:30:08.334Z,95245.59
2023-04-19T21:32:34.914Z,95247.25
2023-04-19T21:35:01.863Z,95248.22
2023-04-19T21:37:28.566Z,95250.88
2023-04-19T21:39:55.280Z,95245.94
2023-04-19T21:42:21.817Z,95248.16
2023-04-19T21:44:48.445Z,95242.56
2023-04-19T21:47:14.976Z,95240.44
2023-04-19T21:49:41.596Z,95240.84
2023-04-19T21:52:08.185Z,95241.53
2023-04-19T21:54:34.921Z,95238.22
2023-04-19T21:57:02.068Z,95235.47
2023-04-19T21:59:30.714Z,95234.31
2023-04-19T22:01:58.501Z,95228.69
2023-04-19T22:04:25.210Z,95239.69
2023-04-19T22:06:51.807Z,95237.63
2023-04-19T22:09:18.512Z,95222.69
2023-04-19T22:11:45.757Z,95230.06
2023-04-19T22:14:12.743Z,95236.50
2023-04-19T22:16:39.395Z,95224.22
2023-04-19T22:19:05.950Z,95218.88
2023-04-19T22:21:32.711Z,95211.44
2023-04-19T22:23:59.291Z,95209.44
2023-04-19T22:26:26.670Z,95210.41
2023-04-19T22:28:54.276Z,95208.38
2023-04-19T22:31:20.799Z,95200.00
2023-04-19T22:33:47.386Z,95200.66
2023-04-19T22:36:13.891Z,95199.72
2023-04-19T22:38:40.487Z,95190.88
2023-04-19T22:41:07.054Z,95199.44
2023-04-19T22:43:33.600Z,95198.44
2023-04-19T22:46:01.021Z,95208.22
2023-04-19T22:48:29.951Z,95201.63
2023-04-19T22:50:56.718Z,95208.97
2023-04-19T22:53:23.794Z,95202.19
2023-04-19T22:55:51.296Z,95212.31
2023-04-19T22:58:19.083Z,95203.03
2023-04-19T23:00:45.980Z,95199.09
2023-04-19T23:03:12.564Z,95203.34
2023-04-19T23:05:40.107Z,95193.38
2023-04-19T23:08:07.151Z,95191.56
2023-04-19T23:10:37.796Z,95191.06
2023-04-19T23:13:05.841Z,95181.75
2023-04-19T23:15:33.013Z,95170.03
2023-04-19T23:18:02.138Z,95169.72
2023-04-19T23:20:29.220Z,95167.25
2023-04-19T23:22:55.759Z,95163.75
2023-04-19T23:25:22.578Z,95167.78
2023-04-19T23:27:50.267Z,95168.75
2023-04-19T23:30:18.000Z,95166.13
2023-04-19T23:32:44.539Z,95155.47
2023-04-19T23:35:11.311Z,95155.06
2023-04-19T23:37:37.966Z,95154.28
2023-04-19T23:40:06.271Z,95151.09
2023-04-19T23:42:32.841Z,95141.16
2023-04-19T23:44:59.363Z,95141.47
2023-04-19T23:47:26.083Z,95133.78
2023-04-19T23:49:52.636Z,95139.25
2023-04-19T23:52:22.496Z,95139.53
2023-04-19T23:54:49.517Z,95136.66
2023-04-19T23:57:16.052Z,95134.19
2023-04-19T23:59:42.834Z,95127.13
